RXA6438 YSWG-YMML
Flight info
| Callsign | RXA6438 |
|---|---|
| Flight time | 0h 58m |
| Altitude | 20000 |
| Route | WG W638 AY V147 TEMIS V169 ML |
| Aircraft | SF34/M-SDFGR/S |
Departure
| Time | 2026-05-06 07:51 |
|---|---|
| Airport | Wagga Wagga Airport (YSWG) |
Arrival
| Time | 2026-05-06 08:50 |
|---|---|
| Airport | Melbourne Airport (YMML) |
| Time | Latitude | Longitude | Altitude | Speed | Heading |
|---|---|---|---|---|---|
| 2026-05-06 07:50 | -35.16260 | 147.46435 | 711 ft | 0 kts | 153° |
| 2026-05-06 07:50 | -35.16300 | 147.46461 | 711 ft | 13 kts | 152° |
| 2026-05-06 07:50 | -35.16409 | 147.46532 | 717 ft | 19 kts | 153° |
| 2026-05-06 07:50 | -35.16403 | 147.46714 | 715 ft | 53 kts | 63° |
| 2026-05-06 07:51 | -35.16131 | 147.47336 | 727 ft | 111 kts | 61° |
| 2026-05-06 07:51 | -35.15707 | 147.48270 | 1024 ft | 134 kts | 59° |
| 2026-05-06 07:51 | -35.15438 | 147.49381 | 1502 ft | 146 kts | 102° |
| 2026-05-06 07:51 | -35.16049 | 147.50349 | 1993 ft | 152 kts | 158° |
| 2026-05-06 07:52 | -35.17094 | 147.50334 | 2472 ft | 159 kts | 208° |
| 2026-05-06 07:52 | -35.17834 | 147.49316 | 2958 ft | 167 kts | 245° |
| 2026-05-06 07:52 | -35.18348 | 147.48005 | 3454 ft | 175 kts | 247° |
| 2026-05-06 07:52 | -35.18802 | 147.46595 | 3947 ft | 181 kts | 249° |
| 2026-05-06 07:53 | -35.19476 | 147.45330 | 4419 ft | 186 kts | 220° |
| 2026-05-06 07:53 | -35.20637 | 147.44601 | 4921 ft | 190 kts | 206° |
| 2026-05-06 07:53 | -35.21874 | 147.43985 | 5401 ft | 193 kts | 206° |
| 2026-05-06 07:53 | -35.23112 | 147.43313 | 5887 ft | 196 kts | 209° |
| 2026-05-06 07:54 | -35.24358 | 147.42613 | 6381 ft | 198 kts | 208° |
| 2026-05-06 07:54 | -35.25618 | 147.41926 | 6922 ft | 198 kts | 208° |
| 2026-05-06 07:54 | -35.26872 | 147.41231 | 7453 ft | 198 kts | 208° |
| 2026-05-06 07:54 | -35.28130 | 147.40536 | 7995 ft | 199 kts | 209° |
| 2026-05-06 07:55 | -35.29389 | 147.39841 | 8551 ft | 199 kts | 209° |
| 2026-05-06 07:55 | -35.30652 | 147.39142 | 9112 ft | 199 kts | 209° |
| 2026-05-06 07:55 | -35.31900 | 147.38453 | 9667 ft | 200 kts | 210° |
| 2026-05-06 07:55 | -35.33169 | 147.37751 | 10226 ft | 200 kts | 210° |
| 2026-05-06 07:56 | -35.34440 | 147.37048 | 10747 ft | 201 kts | 210° |
| 2026-05-06 07:56 | -35.35714 | 147.36343 | 11278 ft | 201 kts | 211° |
| 2026-05-06 07:56 | -35.36992 | 147.35634 | 11787 ft | 204 kts | 211° |
| 2026-05-06 07:56 | -35.38312 | 147.34901 | 12152 ft | 214 kts | 211° |
| 2026-05-06 07:57 | -35.39695 | 147.34136 | 12487 ft | 222 kts | 210° |
| 2026-05-06 07:57 | -35.41121 | 147.33347 | 12827 ft | 228 kts | 211° |
| 2026-05-06 07:57 | -35.42581 | 147.32537 | 13170 ft | 232 kts | 211° |
| 2026-05-06 07:57 | -35.44039 | 147.31728 | 13511 ft | 235 kts | 211° |
| 2026-05-06 07:58 | -35.45538 | 147.30897 | 13863 ft | 237 kts | 211° |
| 2026-05-06 07:58 | -35.47048 | 147.30058 | 14194 ft | 240 kts | 211° |
| 2026-05-06 07:58 | -35.48573 | 147.29212 | 14503 ft | 241 kts | 211° |
| 2026-05-06 07:58 | -35.50109 | 147.28359 | 14820 ft | 243 kts | 212° |
| 2026-05-06 07:59 | -35.51648 | 147.27503 | 15137 ft | 243 kts | 212° |
| 2026-05-06 07:59 | -35.53193 | 147.26644 | 15454 ft | 244 kts | 212° |
| 2026-05-06 07:59 | -35.54739 | 147.25786 | 15775 ft | 244 kts | 212° |
| 2026-05-06 07:59 | -35.56280 | 147.24926 | 16101 ft | 243 kts | 213° |
| 2026-05-06 08:00 | -35.57822 | 147.24069 | 16427 ft | 243 kts | 213° |
| 2026-05-06 08:00 | -35.59341 | 147.23223 | 16752 ft | 243 kts | 213° |
| 2026-05-06 08:00 | -35.60877 | 147.22366 | 17082 ft | 242 kts | 213° |
| 2026-05-06 08:00 | -35.62411 | 147.21513 | 17423 ft | 242 kts | 214° |
| 2026-05-06 08:01 | -35.63938 | 147.20660 | 17764 ft | 241 kts | 214° |
| 2026-05-06 08:01 | -35.65463 | 147.19809 | 18124 ft | 240 kts | 214° |
| 2026-05-06 08:01 | -35.66986 | 147.18960 | 18467 ft | 240 kts | 215° |
| 2026-05-06 08:01 | -35.68507 | 147.18109 | 18767 ft | 240 kts | 214° |
| 2026-05-06 08:02 | -35.70028 | 147.17261 | 19071 ft | 240 kts | 215° |
| 2026-05-06 08:02 | -35.71545 | 147.16412 | 19375 ft | 240 kts | 215° |
| 2026-05-06 08:02 | -35.73041 | 147.15576 | 19686 ft | 239 kts | 215° |
| 2026-05-06 08:02 | -35.74557 | 147.14728 | 19986 ft | 240 kts | 215° |
| 2026-05-06 08:03 | -35.76098 | 147.13860 | 20097 ft | 248 kts | 215° |
| 2026-05-06 08:03 | -35.77696 | 147.12966 | 20138 ft | 256 kts | 214° |
| 2026-05-06 08:03 | -35.79345 | 147.12046 | 20144 ft | 263 kts | 214° |
| 2026-05-06 08:03 | -35.81027 | 147.11103 | 20149 ft | 268 kts | 214° |
| 2026-05-06 08:04 | -35.82731 | 147.10149 | 20157 ft | 270 kts | 214° |
| 2026-05-06 08:04 | -35.84450 | 147.09185 | 20154 ft | 272 kts | 214° |
| 2026-05-06 08:04 | -35.86178 | 147.08214 | 20156 ft | 273 kts | 214° |
| 2026-05-06 08:04 | -35.87912 | 147.07242 | 20155 ft | 274 kts | 214° |
| 2026-05-06 08:05 | -35.89626 | 147.06279 | 20156 ft | 274 kts | 214° |
| 2026-05-06 08:05 | -35.91362 | 147.05304 | 20155 ft | 275 kts | 214° |
| 2026-05-06 08:05 | -35.93105 | 147.04323 | 20155 ft | 276 kts | 214° |
| 2026-05-06 08:05 | -35.94850 | 147.03343 | 20151 ft | 276 kts | 214° |
| 2026-05-06 08:06 | -35.96595 | 147.02360 | 20151 ft | 276 kts | 214° |
| 2026-05-06 08:06 | -35.98343 | 147.01375 | 20151 ft | 276 kts | 214° |
| 2026-05-06 08:06 | -36.00086 | 147.00396 | 20155 ft | 276 kts | 214° |
| 2026-05-06 08:06 | -36.01834 | 146.99409 | 20151 ft | 276 kts | 214° |
| 2026-05-06 08:07 | -36.03582 | 146.98423 | 20154 ft | 277 kts | 214° |
| 2026-05-06 08:07 | -36.05335 | 146.97435 | 20152 ft | 277 kts | 214° |
| 2026-05-06 08:07 | -36.07038 | 146.96430 | 20149 ft | 270 kts | 221° |
| 2026-05-06 08:07 | -36.08419 | 146.94970 | 20150 ft | 260 kts | 231° |
| 2026-05-06 08:08 | -36.09839 | 146.93563 | 20148 ft | 262 kts | 226° |
| 2026-05-06 08:08 | -36.11333 | 146.92206 | 20148 ft | 269 kts | 226° |
| 2026-05-06 08:08 | -36.12766 | 146.90812 | 20147 ft | 258 kts | 229° |
| 2026-05-06 08:08 | -36.14165 | 146.89419 | 20144 ft | 258 kts | 227° |
| 2026-05-06 08:09 | -36.15581 | 146.88053 | 20140 ft | 258 kts | 227° |
| 2026-05-06 08:09 | -36.16984 | 146.86674 | 20138 ft | 257 kts | 228° |
| 2026-05-06 08:09 | -36.18368 | 146.85320 | 20146 ft | 258 kts | 227° |
| 2026-05-06 08:09 | -36.19775 | 146.83946 | 20144 ft | 257 kts | 227° |
| 2026-05-06 08:10 | -36.21176 | 146.82571 | 20144 ft | 257 kts | 228° |
| 2026-05-06 08:10 | -36.22578 | 146.81200 | 20143 ft | 257 kts | 227° |
| 2026-05-06 08:10 | -36.23983 | 146.79827 | 20142 ft | 257 kts | 228° |
| 2026-05-06 08:10 | -36.25379 | 146.78451 | 20141 ft | 257 kts | 228° |
| 2026-05-06 08:11 | -36.26780 | 146.77082 | 20140 ft | 256 kts | 227° |
| 2026-05-06 08:11 | -36.28180 | 146.75706 | 20139 ft | 257 kts | 228° |
| 2026-05-06 08:11 | -36.29582 | 146.74330 | 20138 ft | 257 kts | 227° |
| 2026-05-06 08:11 | -36.30967 | 146.72970 | 20139 ft | 257 kts | 228° |
| 2026-05-06 08:12 | -36.32368 | 146.71595 | 20136 ft | 257 kts | 228° |
| 2026-05-06 08:12 | -36.33768 | 146.70215 | 20147 ft | 257 kts | 228° |
| 2026-05-06 08:12 | -36.35173 | 146.68834 | 20142 ft | 258 kts | 228° |
| 2026-05-06 08:12 | -36.36578 | 146.67456 | 20143 ft | 258 kts | 228° |
| 2026-05-06 08:13 | -36.37980 | 146.66071 | 20142 ft | 257 kts | 228° |
| 2026-05-06 08:13 | -36.39383 | 146.64691 | 20142 ft | 257 kts | 228° |
| 2026-05-06 08:13 | -36.40785 | 146.63310 | 20143 ft | 257 kts | 228° |
| 2026-05-06 08:13 | -36.42169 | 146.61943 | 20133 ft | 257 kts | 228° |
| 2026-05-06 08:14 | -36.43569 | 146.60563 | 20135 ft | 257 kts | 228° |
| 2026-05-06 08:14 | -36.44969 | 146.59184 | 20135 ft | 257 kts | 228° |
| 2026-05-06 08:14 | -36.46364 | 146.57804 | 20135 ft | 257 kts | 228° |
| 2026-05-06 08:14 | -36.47764 | 146.56422 | 20135 ft | 257 kts | 228° |
| 2026-05-06 08:15 | -36.49162 | 146.55040 | 20137 ft | 257 kts | 228° |
| 2026-05-06 08:15 | -36.50562 | 146.53655 | 20143 ft | 257 kts | 228° |
| 2026-05-06 08:15 | -36.51963 | 146.52270 | 20143 ft | 258 kts | 228° |
| 2026-05-06 08:15 | -36.53365 | 146.50883 | 20135 ft | 258 kts | 228° |
| 2026-05-06 08:16 | -36.54767 | 146.49494 | 20135 ft | 257 kts | 228° |
| 2026-05-06 08:16 | -36.56167 | 146.48108 | 20136 ft | 258 kts | 228° |
| 2026-05-06 08:16 | -36.57550 | 146.46737 | 20137 ft | 258 kts | 228° |
| 2026-05-06 08:16 | -36.58952 | 146.45346 | 20137 ft | 258 kts | 228° |
| 2026-05-06 08:17 | -36.60356 | 146.43955 | 20133 ft | 258 kts | 228° |
| 2026-05-06 08:17 | -36.61757 | 146.42565 | 20133 ft | 257 kts | 228° |
| 2026-05-06 08:17 | -36.63155 | 146.41173 | 20133 ft | 257 kts | 228° |
| 2026-05-06 08:17 | -36.64553 | 146.39788 | 20134 ft | 257 kts | 228° |
| 2026-05-06 08:18 | -36.65955 | 146.38393 | 20132 ft | 258 kts | 228° |
| 2026-05-06 08:18 | -36.67357 | 146.36995 | 20131 ft | 258 kts | 228° |
| 2026-05-06 08:18 | -36.68762 | 146.35601 | 20131 ft | 258 kts | 228° |
| 2026-05-06 08:18 | -36.70148 | 146.34221 | 20132 ft | 258 kts | 228° |
| 2026-05-06 08:19 | -36.71594 | 146.32872 | 20010 ft | 267 kts | 224° |
| 2026-05-06 08:19 | -36.73215 | 146.31638 | 19820 ft | 277 kts | 219° |
| 2026-05-06 08:19 | -36.74931 | 146.30547 | 19861 ft | 274 kts | 216° |
| 2026-05-06 08:19 | -36.76346 | 146.29159 | 19984 ft | 248 kts | 243° |
| 2026-05-06 08:20 | -36.77125 | 146.27328 | 20110 ft | 240 kts | 247° |
| 2026-05-06 08:20 | -36.78326 | 146.25767 | 20115 ft | 261 kts | 226° |
| 2026-05-06 08:20 | -36.79855 | 146.24494 | 20113 ft | 265 kts | 224° |
| 2026-05-06 08:20 | -36.81316 | 146.23152 | 20129 ft | 263 kts | 229° |
| 2026-05-06 08:21 | -36.82713 | 146.21677 | 20125 ft | 264 kts | 230° |
| 2026-05-06 08:21 | -36.84140 | 146.20221 | 20120 ft | 266 kts | 227° |
| 2026-05-06 08:21 | -36.85585 | 146.18822 | 20119 ft | 266 kts | 228° |
| 2026-05-06 08:21 | -36.87016 | 146.17368 | 20122 ft | 265 kts | 229° |
| 2026-05-06 08:22 | -36.88453 | 146.15921 | 20121 ft | 266 kts | 228° |
| 2026-05-06 08:22 | -36.89906 | 146.14483 | 20117 ft | 266 kts | 229° |
| 2026-05-06 08:22 | -36.91344 | 146.13030 | 20113 ft | 266 kts | 229° |
| 2026-05-06 08:22 | -36.92790 | 146.11579 | 20113 ft | 266 kts | 228° |
| 2026-05-06 08:23 | -36.94216 | 146.10154 | 20118 ft | 266 kts | 229° |
| 2026-05-06 08:23 | -36.95656 | 146.08703 | 20117 ft | 266 kts | 229° |
| 2026-05-06 08:23 | -36.97101 | 146.07252 | 20115 ft | 266 kts | 229° |
| 2026-05-06 08:23 | -36.98543 | 146.05804 | 20108 ft | 266 kts | 229° |
| 2026-05-06 08:24 | -36.99985 | 146.04353 | 20114 ft | 266 kts | 229° |
| 2026-05-06 08:24 | -37.01424 | 146.02905 | 20112 ft | 265 kts | 229° |
| 2026-05-06 08:24 | -37.02375 | 146.01948 | 20103 ft | 265 kts | 229° |
| 2026-05-06 08:24 | -37.04292 | 146.00016 | 20102 ft | 264 kts | 229° |
| 2026-05-06 08:25 | -37.05242 | 145.99060 | 20098 ft | 264 kts | 229° |
| 2026-05-06 08:25 | -37.07133 | 145.97152 | 20095 ft | 263 kts | 229° |
| 2026-05-06 08:25 | -37.08559 | 145.95717 | 20092 ft | 262 kts | 228° |
| 2026-05-06 08:25 | -37.09980 | 145.94289 | 20095 ft | 261 kts | 229° |
| 2026-05-06 08:26 | -37.10929 | 145.93310 | 20094 ft | 262 kts | 229° |
| 2026-05-06 08:26 | -37.12342 | 145.91894 | 20099 ft | 264 kts | 228° |
| 2026-05-06 08:26 | -37.13776 | 145.90456 | 20104 ft | 264 kts | 229° |
| 2026-05-06 08:26 | -37.15198 | 145.88998 | 20097 ft | 265 kts | 229° |
| 2026-05-06 08:27 | -37.16638 | 145.87552 | 20098 ft | 265 kts | 229° |
| 2026-05-06 08:27 | -37.18540 | 145.85625 | 20098 ft | 265 kts | 229° |
| 2026-05-06 08:27 | -37.19978 | 145.84171 | 20095 ft | 265 kts | 229° |
| 2026-05-06 08:27 | -37.20893 | 145.83144 | 20089 ft | 256 kts | 239° |
| 2026-05-06 08:28 | -37.22170 | 145.80739 | 20088 ft | 252 kts | 243° |
| 2026-05-06 08:28 | -37.22874 | 145.79572 | 20089 ft | 254 kts | 241° |
| 2026-05-06 08:28 | -37.24319 | 145.77225 | 20081 ft | 252 kts | 243° |
| 2026-05-06 08:28 | -37.24986 | 145.76036 | 20082 ft | 251 kts | 244° |
| 2026-05-06 08:29 | -37.26004 | 145.74247 | 20065 ft | 254 kts | 242° |
| 2026-05-06 08:29 | -37.27072 | 145.72446 | 19816 ft | 260 kts | 242° |
| 2026-05-06 08:29 | -37.28458 | 145.70047 | 19431 ft | 247 kts | 243° |
| 2026-05-06 08:29 | -37.29141 | 145.68886 | 19236 ft | 243 kts | 242° |
| 2026-05-06 08:30 | -37.30128 | 145.67184 | 18946 ft | 240 kts | 243° |
| 2026-05-06 08:30 | -37.31147 | 145.64819 | 18559 ft | 232 kts | 250° |
| 2026-05-06 08:30 | -37.31672 | 145.63642 | 18366 ft | 233 kts | 248° |
| 2026-05-06 08:30 | -37.32496 | 145.61890 | 18046 ft | 233 kts | 249° |
| 2026-05-06 08:31 | -37.33255 | 145.60099 | 17726 ft | 233 kts | 250° |
| 2026-05-06 08:31 | -37.34029 | 145.58305 | 17411 ft | 234 kts | 248° |
| 2026-05-06 08:31 | -37.34821 | 145.56516 | 17088 ft | 234 kts | 248° |
| 2026-05-06 08:31 | -37.35600 | 145.54720 | 16775 ft | 234 kts | 248° |
| 2026-05-06 08:32 | -37.36381 | 145.52927 | 16465 ft | 234 kts | 248° |
| 2026-05-06 08:32 | -37.37161 | 145.51138 | 16151 ft | 233 kts | 248° |
| 2026-05-06 08:32 | -37.37926 | 145.49378 | 15854 ft | 232 kts | 247° |
| 2026-05-06 08:32 | -37.38704 | 145.47597 | 15556 ft | 232 kts | 247° |
| 2026-05-06 08:33 | -37.39482 | 145.45817 | 15258 ft | 232 kts | 247° |
| 2026-05-06 08:33 | -37.40310 | 145.44072 | 14959 ft | 236 kts | 237° |
| 2026-05-06 08:33 | -37.41614 | 145.42754 | 14671 ft | 239 kts | 227° |
| 2026-05-06 08:33 | -37.42707 | 145.41229 | 14382 ft | 233 kts | 239° |
| 2026-05-06 08:34 | -37.43627 | 145.39549 | 14032 ft | 233 kts | 243° |
| 2026-05-06 08:34 | -37.45231 | 145.36038 | 13257 ft | 229 kts | 248° |
| 2026-05-06 08:34 | -37.45908 | 145.34232 | 12866 ft | 227 kts | 250° |
| 2026-05-06 08:35 | -37.46493 | 145.32401 | 12474 ft | 224 kts | 253° |
| 2026-05-06 08:35 | -37.46972 | 145.30573 | 12097 ft | 222 kts | 257° |
| 2026-05-06 08:35 | -37.47347 | 145.28699 | 11714 ft | 220 kts | 261° |
| 2026-05-06 08:35 | -37.47400 | 145.26814 | 11331 ft | 217 kts | 283° |
| 2026-05-06 08:36 | -37.46627 | 145.25194 | 10954 ft | 223 kts | 313° |
| 2026-05-06 08:36 | -37.45571 | 145.23869 | 10592 ft | 197 kts | 296° |
| 2026-05-06 08:36 | -37.45216 | 145.22332 | 10221 ft | 180 kts | 278° |
| 2026-05-06 08:36 | -37.45053 | 145.20777 | 9845 ft | 179 kts | 277° |
| 2026-05-06 08:37 | -37.44906 | 145.19229 | 9433 ft | 178 kts | 277° |
| 2026-05-06 08:37 | -37.44765 | 145.17717 | 9143 ft | 174 kts | 277° |
| 2026-05-06 08:37 | -37.44631 | 145.16235 | 9075 ft | 167 kts | 277° |
| 2026-05-06 08:37 | -37.44506 | 145.14798 | 9074 ft | 164 kts | 277° |
| 2026-05-06 08:38 | -37.44387 | 145.13385 | 9069 ft | 162 kts | 277° |
| 2026-05-06 08:38 | -37.44268 | 145.11982 | 9063 ft | 161 kts | 277° |
| 2026-05-06 08:38 | -37.44153 | 145.10575 | 9060 ft | 162 kts | 277° |
| 2026-05-06 08:38 | -37.44035 | 145.09170 | 9053 ft | 161 kts | 276° |
| 2026-05-06 08:39 | -37.43914 | 145.07774 | 9057 ft | 160 kts | 277° |
| 2026-05-06 08:39 | -37.43799 | 145.06394 | 9054 ft | 160 kts | 276° |
| 2026-05-06 08:39 | -37.43684 | 145.05003 | 9057 ft | 160 kts | 276° |
| 2026-05-06 08:39 | -37.43564 | 145.03615 | 9059 ft | 160 kts | 276° |
| 2026-05-06 08:40 | -37.43447 | 145.02221 | 9057 ft | 161 kts | 277° |
| 2026-05-06 08:40 | -37.43337 | 145.00816 | 9057 ft | 161 kts | 277° |
| 2026-05-06 08:40 | -37.43225 | 144.99413 | 9058 ft | 161 kts | 277° |
| 2026-05-06 08:40 | -37.43111 | 144.98017 | 9057 ft | 160 kts | 277° |
| 2026-05-06 08:41 | -37.42996 | 144.96622 | 9060 ft | 160 kts | 277° |
| 2026-05-06 08:41 | -37.42883 | 144.95227 | 9060 ft | 160 kts | 277° |
| 2026-05-06 08:41 | -37.42770 | 144.93833 | 9061 ft | 161 kts | 276° |
| 2026-05-06 08:41 | -37.42657 | 144.92451 | 9060 ft | 161 kts | 276° |
| 2026-05-06 08:42 | -37.42539 | 144.91050 | 9065 ft | 161 kts | 277° |
| 2026-05-06 08:42 | -37.42419 | 144.89649 | 9063 ft | 161 kts | 276° |
| 2026-05-06 08:42 | -37.42295 | 144.88250 | 8765 ft | 156 kts | 277° |
| 2026-05-06 08:42 | -37.42178 | 144.86976 | 8314 ft | 137 kts | 276° |
| 2026-05-06 08:43 | -37.42384 | 144.85880 | 7827 ft | 128 kts | 249° |
| 2026-05-06 08:43 | -37.42804 | 144.84929 | 7307 ft | 121 kts | 248° |
| 2026-05-06 08:43 | -37.43202 | 144.84029 | 6796 ft | 116 kts | 249° |
| 2026-05-06 08:43 | -37.43584 | 144.83161 | 6290 ft | 114 kts | 249° |
| 2026-05-06 08:44 | -37.43969 | 144.82297 | 5760 ft | 113 kts | 248° |
| 2026-05-06 08:44 | -37.44383 | 144.81406 | 5252 ft | 131 kts | 245° |
| 2026-05-06 08:44 | -37.45012 | 144.80466 | 4761 ft | 149 kts | 230° |
| 2026-05-06 08:44 | -37.45872 | 144.79705 | 4260 ft | 160 kts | 208° |
| 2026-05-06 08:45 | -37.47039 | 144.79793 | 3768 ft | 183 kts | 164° |
| 2026-05-06 08:45 | -37.48136 | 144.80631 | 3276 ft | 180 kts | 169° |
| 2026-05-06 08:45 | -37.49286 | 144.80747 | 3101 ft | 160 kts | 192° |
| 2026-05-06 08:45 | -37.50395 | 144.80872 | 3079 ft | 161 kts | 179° |
| 2026-05-06 08:46 | -37.51465 | 144.81146 | 3075 ft | 152 kts | 178° |
| 2026-05-06 08:46 | -37.52475 | 144.81418 | 3048 ft | 150 kts | 179° |
| 2026-05-06 08:46 | -37.53507 | 144.81635 | 2930 ft | 152 kts | 184° |
| 2026-05-06 08:46 | -37.54555 | 144.81752 | 2741 ft | 149 kts | 191° |
| 2026-05-06 08:47 | -37.55584 | 144.81781 | 2546 ft | 152 kts | 180° |
| 2026-05-06 08:47 | -37.56621 | 144.82099 | 2353 ft | 153 kts | 176° |
| 2026-05-06 08:47 | -37.57666 | 144.82304 | 2126 ft | 152 kts | 182° |
| 2026-05-06 08:47 | -37.58726 | 144.82379 | 2190 ft | 153 kts | 184° |
| 2026-05-06 08:48 | -37.59778 | 144.82548 | 2044 ft | 150 kts | 178° |
| 2026-05-06 08:48 | -37.60719 | 144.82775 | 1821 ft | 125 kts | 182° |
| 2026-05-06 08:48 | -37.61616 | 144.82836 | 1593 ft | 135 kts | 185° |
| 2026-05-06 08:48 | -37.62496 | 144.82976 | 1226 ft | 120 kts | 175° |
| 2026-05-06 08:49 | -37.63342 | 144.83124 | 971 ft | 127 kts | 170° |
| 2026-05-06 08:49 | -37.64167 | 144.83273 | 726 ft | 114 kts | 171° |
| 2026-05-06 08:49 | -37.64949 | 144.83422 | 533 ft | 108 kts | 173° |
| 2026-05-06 08:49 | -37.65650 | 144.83554 | 409 ft | 90 kts | 172° |
| 2026-05-06 08:50 | -37.65940 | 144.83607 | 401 ft | 40 kts | 172° |
| 2026-05-06 08:50 | -37.66177 | 144.83653 | 395 ft | 28 kts | 172° |
| 2026-05-06 08:50 | -37.66401 | 144.83691 | 391 ft | 33 kts | 172° |
| 2026-05-06 08:50 | -37.66490 | 144.83758 | 389 ft | 18 kts | 115° |
| 2026-05-06 08:51 | -37.66531 | 144.83927 | 382 ft | 20 kts | 143° |
| 2026-05-06 08:51 | -37.66725 | 144.83972 | 379 ft | 37 kts | 173° |
| 2026-05-06 08:51 | -37.66946 | 144.84012 | 374 ft | 20 kts | 171° |
| 2026-05-06 08:51 | -37.67150 | 144.84050 | 368 ft | 31 kts | 171° |
| 2026-05-06 08:52 | -37.67228 | 144.84196 | 366 ft | 19 kts | 105° |
| 2026-05-06 08:52 | -37.67332 | 144.84293 | 360 ft | 21 kts | 172° |
| 2026-05-06 08:52 | -37.67476 | 144.84320 | 359 ft | 13 kts | 171° |
| 2026-05-06 08:52 | -37.67529 | 144.84390 | 354 ft | 7 kts | 120° |
| 2026-05-06 08:53 | -37.67555 | 144.84441 | 352 ft | 11 kts | 121° |
| 2026-05-06 08:53 | -37.67558 | 144.84447 | 352 ft | 0 kts | 120° |